This is the latest recevied weather packets stored in our database for station/object K7DC. If no packets are shown the sender has not sent any weather packets the latest 1 day(s).
| Time | Temp. | Humidity | Pressure | Rain* | Wind** | Luminosity | Snow |
|---|---|---|---|---|---|---|---|
| 1778080939 | 21.67° C | 37% | 1016.6 hPa | 0 mm | - | 463 W/m² | - |
| 1778080334 | 20.56° C | 41% | 1016.6 hPa | 0 mm | - | 424 W/m² | - |
| 1778079121 | 17.78° C | 50% | 1016.8 hPa | 0 mm | - | 341 W/m² | - |
| 1778078819 | 18.33° C | 48% | 1016.6 hPa | 0 mm | - | 320 W/m² | - |
| 1778077609 | 18.33° C | 48% | 1016.7 hPa | 0 mm | - | 235 W/m² | - |
| 1778077004 | 17.22° C | 52% | 1016.6 hPa | 0 mm | - | 198 W/m² | - |
| 1778073974 | 13.33° C | 63% | 1016.3 hPa | 0 mm | - | 55 W/m² | - |
| 1778072459 | 8.89° C | 82% | 1016.1 hPa | 0 mm | - | 26 W/m² | - |
| 1778071552 | 8.33° C | 82% | 1016 hPa | 0 mm | - | 10 W/m² | - |
| 1778070040 | 7.78° C | 83% | 1015.8 hPa | 0 mm | - | 0 W/m² | - |
| 1778069737 | 8.33° C | 78% | 1016 hPa | 0 mm | - | 0 W/m² | - |
| 1778069433 | 8.89° C | 80% | 1015.7 hPa | 0 mm | - | 0 W/m² | - |
| 1778068526 | 8.89° C | 79% | 1015.5 hPa | 0 mm | - | 0 W/m² | - |
| 1778067620 | 8.89° C | 78% | 1015.3 hPa | 0 mm | - | 0 W/m² | - |
| 1778066711 | 10° C | 73% | 1015.3 hPa | 0 mm | - | 0 W/m² | - |
| 1778065501 | 9.44° C | 76% | 1015.2 hPa | 0 mm | - | 0 W/m² | - |
| 1778063684 | 10° C | 75% | 1015.2 hPa | 0 mm | - | 0 W/m² | - |
| 1778063079 | 10° C | 77% | 1015.1 hPa | 0 mm | - | 0 W/m² | - |
| 1778062776 | 10° C | 76% | 1015 hPa | 0 mm | - | 0 W/m² | - |
| 1778062472 | 10° C | 77% | 1015.2 hPa | 0 mm | - | 0 W/m² | - |
| 1778061264 | 10° C | 73% | 1015.1 hPa | 0 mm | - | 0 W/m² | - |
| 1778059751 | 9.44° C | 77% | 1015 hPa | 0 mm | - | 0 W/m² | - |
| 1778059449 | 10° C | 76% | 1015.1 hPa | 0 mm | - | 0 W/m² | - |
| 1778058540 | 9.44° C | 78% | 1014.7 hPa | 0 mm | - | 0 W/m² | - |
| 1778058238 | 9.44° C | 76% | 1014.7 hPa | 0 mm | - | 0 W/m² | - |
* Rain latest hour (hover to see other rain measurements)
** Current wind speed in m/s (hover to see current wind gust speed)